sensor_id;sensor_type;location;lat;lon;timestamp;temperature;humidity
46319;DHT22;32042;50.916;2.926;2023-01-08T00:01:41;8.70;99.90
46319;DHT22;32042;50.916;2.926;2023-01-08T00:04:07;8.60;99.90
46319;DHT22;32042;50.916;2.926;2023-01-08T00:06:33;8.60;99.90
46319;DHT22;32042;50.916;2.926;2023-01-08T00:08:59;8.60;99.90
46319;DHT22;32042;50.916;2.926;2023-01-08T00:11:25;8.60;99.90
46319;DHT22;32042;50.916;2.926;2023-01-08T00:13:50;8.60;99.90
46319;DHT22;32042;50.916;2.926;2023-01-08T00:16:18;8.60;99.90
46319;DHT22;32042;50.916;2.926;2023-01-08T00:18:45;8.50;99.90
46319;DHT22;32042;50.916;2.926;2023-01-08T00:21:11;8.50;99.90
46319;DHT22;32042;50.916;2.926;2023-01-08T00:23:37;8.40;99.90
46319;DHT22;32042;50.916;2.926;2023-01-08T00:26:06;8.40;99.90
46319;DHT22;32042;50.916;2.926;2023-01-08T00:28:32;8.30;99.90
46319;DHT22;32042;50.916;2.926;2023-01-08T00:30:58;8.30;99.90
46319;DHT22;32042;50.916;2.926;2023-01-08T00:33:24;8.30;99.90
46319;DHT22;32042;50.916;2.926;2023-01-08T00:35:49;8.30;99.90
46319;DHT22;32042;50.916;2.926;2023-01-08T00:38:15;8.30;99.90
46319;DHT22;32042;50.916;2.926;2023-01-08T00:40:41;8.30;99.90
46319;DHT22;32042;50.916;2.926;2023-01-08T00:43:07;8.30;99.90
46319;DHT22;32042;50.916;2.926;2023-01-08T00:45:33;8.30;99.90
46319;DHT22;32042;50.916;2.926;2023-01-08T00:47:58;8.30;99.90
46319;DHT22;32042;50.916;2.926;2023-01-08T00:50:24;8.20;99.90
46319;DHT22;32042;50.916;2.926;2023-01-08T00:52:50;8.30;99.90
46319;DHT22;32042;50.916;2.926;2023-01-08T00:55:16;8.30;99.90
46319;DHT22;32042;50.916;2.926;2023-01-08T00:57:42;8.30;99.90
46319;DHT22;32042;50.916;2.926;2023-01-08T01:00:11;8.30;99.90
46319;DHT22;32042;50.916;2.926;2023-01-08T01:02:37;8.30;99.90
46319;DHT22;32042;50.916;2.926;2023-01-08T01:05:04;8.40;99.90
46319;DHT22;32042;50.916;2.926;2023-01-08T01:07:31;8.30;99.90
46319;DHT22;32042;50.916;2.926;2023-01-08T01:09:57;8.40;99.90
46319;DHT22;32042;50.916;2.926;2023-01-08T01:12:23;8.30;99.90
46319;DHT22;32042;50.916;2.926;2023-01-08T01:14:49;8.30;99.90
46319;DHT22;32042;50.916;2.926;2023-01-08T01:17:14;8.30;99.90
46319;DHT22;32042;50.916;2.926;2023-01-08T01:19:40;8.20;99.90
46319;DHT22;32042;50.916;2.926;2023-01-08T01:22:06;8.20;99.90
46319;DHT22;32042;50.916;2.926;2023-01-08T01:24:32;8.20;99.90
46319;DHT22;32042;50.916;2.926;2023-01-08T01:26:58;8.10;99.90
46319;DHT22;32042;50.916;2.926;2023-01-08T01:29:24;8.10;99.90
46319;DHT22;32042;50.916;2.926;2023-01-08T01:31:50;8.00;99.90
46319;DHT22;32042;50.916;2.926;2023-01-08T01:34:15;8.00;99.90
46319;DHT22;32042;50.916;2.926;2023-01-08T01:36:41;8.00;99.90
46319;DHT22;32042;50.916;2.926;2023-01-08T01:39:07;8.00;99.90
46319;DHT22;32042;50.916;2.926;2023-01-08T01:41:37;8.00;99.90
46319;DHT22;32042;50.916;2.926;2023-01-08T01:44:33;8.00;99.90
46319;DHT22;32042;50.916;2.926;2023-01-08T01:47:00;7.90;99.90
46319;DHT22;32042;50.916;2.926;2023-01-08T01:49:27;7.90;99.90
46319;DHT22;32042;50.916;2.926;2023-01-08T01:51:55;7.90;99.90
46319;DHT22;32042;50.916;2.926;2023-01-08T01:54:27;7.90;99.90
46319;DHT22;32042;50.916;2.926;2023-01-08T01:56:54;7.80;99.90
46319;DHT22;32042;50.916;2.926;2023-01-08T01:59:20;7.80;99.90
46319;DHT22;32042;50.916;2.926;2023-01-08T02:01:46;7.80;99.90
46319;DHT22;32042;50.916;2.926;2023-01-08T02:04:12;7.70;99.90
46319;DHT22;32042;50.916;2.926;2023-01-08T02:06:50;7.70;99.90
46319;DHT22;32042;50.916;2.926;2023-01-08T02:10:00;7.70;99.90
46319;DHT22;32042;50.916;2.926;2023-01-08T02:12:26;7.70;99.90
46319;DHT22;32042;50.916;2.926;2023-01-08T02:15:22;7.70;99.90
46319;DHT22;32042;50.916;2.926;2023-01-08T02:18:30;7.60;99.90
46319;DHT22;32042;50.916;2.926;2023-01-08T02:20:56;7.50;99.90
46319;DHT22;32042;50.916;2.926;2023-01-08T02:23:36;7.50;99.90
46319;DHT22;32042;50.916;2.926;2023-01-08T02:28:43;7.40;99.90
46319;DHT22;32042;50.916;2.926;2023-01-08T02:31:11;7.40;99.90
46319;DHT22;32042;50.916;2.926;2023-01-08T02:33:38;7.40;99.90
46319;DHT22;32042;50.916;2.926;2023-01-08T02:47:40;7.20;99.90
46319;DHT22;32042;50.916;2.926;2023-01-08T02:50:20;7.20;99.90
46319;DHT22;32042;50.916;2.926;2023-01-08T02:55:40;7.20;99.90
46319;DHT22;32042;50.916;2.926;2023-01-08T02:58:06;7.10;99.90
46319;DHT22;32042;50.916;2.926;2023-01-08T03:00:33;7.10;99.90
46319;DHT22;32042;50.916;2.926;2023-01-08T03:05:34;7.00;99.90
46319;DHT22;32042;50.916;2.926;2023-01-08T03:08:00;7.00;99.90
46319;DHT22;32042;50.916;2.926;2023-01-08T03:10:28;7.00;99.90
46319;DHT22;32042;50.916;2.926;2023-01-08T03:13:04;7.00;99.90
46319;DHT22;32042;50.916;2.926;2023-01-08T03:15:52;7.00;99.90
46319;DHT22;32042;50.916;2.926;2023-01-08T03:18:23;7.00;99.90
46319;DHT22;32042;50.916;2.926;2023-01-08T03:20:51;7.00;99.90
46319;DHT22;32042;50.916;2.926;2023-01-08T03:23:18;7.00;99.90
46319;DHT22;32042;50.916;2.926;2023-01-08T03:25:46;7.00;99.90
46319;DHT22;32042;50.916;2.926;2023-01-08T03:28:20;7.00;99.90
46319;DHT22;32042;50.916;2.926;2023-01-08T03:30:48;6.90;99.90
46319;DHT22;32042;50.916;2.926;2023-01-08T03:33:16;6.90;99.90
46319;DHT22;32042;50.916;2.926;2023-01-08T03:35:45;7.00;99.90
46319;DHT22;32042;50.916;2.926;2023-01-08T03:38:16;7.00;99.90
46319;DHT22;32042;50.916;2.926;2023-01-08T03:40:47;6.90;99.90
46319;DHT22;32042;50.916;2.926;2023-01-08T03:43:16;7.00;99.90
46319;DHT22;32042;50.916;2.926;2023-01-08T03:45:50;7.00;99.90
46319;DHT22;32042;50.916;2.926;2023-01-08T03:48:19;7.00;99.90
46319;DHT22;32042;50.916;2.926;2023-01-08T03:50:46;7.00;99.90
46319;DHT22;32042;50.916;2.926;2023-01-08T03:53:12;6.90;99.90
46319;DHT22;32042;50.916;2.926;2023-01-08T03:55:38;6.90;99.90
46319;DHT22;32042;50.916;2.926;2023-01-08T03:58:04;6.90;99.90
46319;DHT22;32042;50.916;2.926;2023-01-08T04:00:29;6.90;99.90
46319;DHT22;32042;50.916;2.926;2023-01-08T04:02:55;6.90;99.90
46319;DHT22;32042;50.916;2.926;2023-01-08T04:05:21;6.90;99.90
46319;DHT22;32042;50.916;2.926;2023-01-08T04:07:46;6.90;99.90
46319;DHT22;32042;50.916;2.926;2023-01-08T04:10:12;6.80;99.90
46319;DHT22;32042;50.916;2.926;2023-01-08T04:12:40;6.90;99.90
46319;DHT22;32042;50.916;2.926;2023-01-08T04:15:07;6.90;99.90
46319;DHT22;32042;50.916;2.926;2023-01-08T04:17:33;6.90;99.90
46319;DHT22;32042;50.916;2.926;2023-01-08T04:19:58;6.80;99.90
46319;DHT22;32042;50.916;2.926;2023-01-08T04:22:24;6.80;99.90
46319;DHT22;32042;50.916;2.926;2023-01-08T04:24:50;6.80;99.90
46319;DHT22;32042;50.916;2.926;2023-01-08T04:27:15;6.90;99.90
46319;DHT22;32042;50.916;2.926;2023-01-08T04:29:41;6.80;99.90
46319;DHT22;32042;50.916;2.926;2023-01-08T04:32:07;6.80;99.90
46319;DHT22;32042;50.916;2.926;2023-01-08T04:34:32;6.80;99.90
46319;DHT22;32042;50.916;2.926;2023-01-08T04:36:58;6.80;99.90
46319;DHT22;32042;50.916;2.926;2023-01-08T04:39:24;6.80;99.90
46319;DHT22;32042;50.916;2.926;2023-01-08T04:41:49;6.80;99.90
46319;DHT22;32042;50.916;2.926;2023-01-08T04:44:15;6.70;99.90
46319;DHT22;32042;50.916;2.926;2023-01-08T04:46:41;6.80;99.90
46319;DHT22;32042;50.916;2.926;2023-01-08T04:49:06;6.70;99.90
46319;DHT22;32042;50.916;2.926;2023-01-08T04:51:32;6.70;99.90
46319;DHT22;32042;50.916;2.926;2023-01-08T04:53:58;6.70;99.90
46319;DHT22;32042;50.916;2.926;2023-01-08T04:56:23;6.70;99.90
46319;DHT22;32042;50.916;2.926;2023-01-08T04:58:49;6.70;99.90
46319;DHT22;32042;50.916;2.926;2023-01-08T05:01:19;6.70;99.90
46319;DHT22;32042;50.916;2.926;2023-01-08T05:03:45;6.70;99.90
46319;DHT22;32042;50.916;2.926;2023-01-08T05:06:11;6.70;99.90
46319;DHT22;32042;50.916;2.926;2023-01-08T05:08:36;6.70;99.90
46319;DHT22;32042;50.916;2.926;2023-01-08T05:11:02;6.70;99.90
46319;DHT22;32042;50.916;2.926;2023-01-08T05:13:28;6.70;99.90
46319;DHT22;32042;50.916;2.926;2023-01-08T05:15:58;6.70;99.90
46319;DHT22;32042;50.916;2.926;2023-01-08T05:18:24;6.60;99.90
46319;DHT22;32042;50.916;2.926;2023-01-08T05:20:50;6.70;99.90
46319;DHT22;32042;50.916;2.926;2023-01-08T05:23:16;6.60;99.90
46319;DHT22;32042;50.916;2.926;2023-01-08T05:25:41;6.70;99.90
46319;DHT22;32042;50.916;2.926;2023-01-08T05:28:07;6.60;99.90
46319;DHT22;32042;50.916;2.926;2023-01-08T05:30:33;6.60;99.90
46319;DHT22;32042;50.916;2.926;2023-01-08T05:33:01;6.60;99.90
46319;DHT22;32042;50.916;2.926;2023-01-08T05:35:27;6.60;99.90
46319;DHT22;32042;50.916;2.926;2023-01-08T05:37:53;6.60;99.90
46319;DHT22;32042;50.916;2.926;2023-01-08T05:40:18;6.60;99.90
46319;DHT22;32042;50.916;2.926;2023-01-08T05:42:44;6.60;99.90
46319;DHT22;32042;50.916;2.926;2023-01-08T05:45:10;6.60;99.90
46319;DHT22;32042;50.916;2.926;2023-01-08T05:47:35;6.60;99.90
46319;DHT22;32042;50.916;2.926;2023-01-08T05:50:01;6.60;99.90
46319;DHT22;32042;50.916;2.926;2023-01-08T05:52:28;6.60;99.90
46319;DHT22;32042;50.916;2.926;2023-01-08T05:54:54;6.60;99.90
46319;DHT22;32042;50.916;2.926;2023-01-08T05:57:20;6.60;99.90
46319;DHT22;32042;50.916;2.926;2023-01-08T05:59:45;6.60;99.90
46319;DHT22;32042;50.916;2.926;2023-01-08T06:02:11;6.60;99.90
46319;DHT22;32042;50.916;2.926;2023-01-08T06:04:37;6.50;99.90
46319;DHT22;32042;50.916;2.926;2023-01-08T06:07:02;6.50;99.90
46319;DHT22;32042;50.916;2.926;2023-01-08T06:09:28;6.50;99.90
46319;DHT22;32042;50.916;2.926;2023-01-08T06:11:54;6.50;99.90
46319;DHT22;32042;50.916;2.926;2023-01-08T06:14:22;6.50;99.90
46319;DHT22;32042;50.916;2.926;2023-01-08T06:16:48;6.50;99.90
46319;DHT22;32042;50.916;2.926;2023-01-08T06:19:13;6.40;99.90
46319;DHT22;32042;50.916;2.926;2023-01-08T06:21:39;6.40;99.90
46319;DHT22;32042;50.916;2.926;2023-01-08T06:24:05;6.40;99.90
46319;DHT22;32042;50.916;2.926;2023-01-08T06:26:30;6.40;99.90
46319;DHT22;32042;50.916;2.926;2023-01-08T06:28:56;6.40;99.90
46319;DHT22;32042;50.916;2.926;2023-01-08T06:31:22;6.40;99.90
46319;DHT22;32042;50.916;2.926;2023-01-08T06:33:47;6.40;99.90
46319;DHT22;32042;50.916;2.926;2023-01-08T06:36:13;6.40;99.90
46319;DHT22;32042;50.916;2.926;2023-01-08T06:38:39;6.40;99.90
46319;DHT22;32042;50.916;2.926;2023-01-08T06:41:06;6.40;99.90
46319;DHT22;32042;50.916;2.926;2023-01-08T06:43:34;6.40;99.90
46319;DHT22;32042;50.916;2.926;2023-01-08T06:46:00;6.40;99.90
46319;DHT22;32042;50.916;2.926;2023-01-08T06:48:26;6.40;99.90
46319;DHT22;32042;50.916;2.926;2023-01-08T06:50:52;6.30;99.90
46319;DHT22;32042;50.916;2.926;2023-01-08T06:53:18;6.30;99.90
46319;DHT22;32042;50.916;2.926;2023-01-08T06:55:43;6.40;99.90
46319;DHT22;32042;50.916;2.926;2023-01-08T06:58:10;6.40;99.90
46319;DHT22;32042;50.916;2.926;2023-01-08T07:00:39;6.40;99.90
46319;DHT22;32042;50.916;2.926;2023-01-08T07:03:05;6.40;99.90
46319;DHT22;32042;50.916;2.926;2023-01-08T07:05:31;6.40;99.90
46319;DHT22;32042;50.916;2.926;2023-01-08T07:07:56;6.40;99.90
46319;DHT22;32042;50.916;2.926;2023-01-08T07:10:23;6.40;99.90
46319;DHT22;32042;50.916;2.926;2023-01-08T07:12:48;6.40;99.90
46319;DHT22;32042;50.916;2.926;2023-01-08T07:15:14;6.40;99.90
46319;DHT22;32042;50.916;2.926;2023-01-08T07:17:40;6.50;99.90
46319;DHT22;32042;50.916;2.926;2023-01-08T07:20:07;6.50;99.90
46319;DHT22;32042;50.916;2.926;2023-01-08T07:22:34;6.50;99.90
46319;DHT22;32042;50.916;2.926;2023-01-08T07:24:59;6.50;99.90
46319;DHT22;32042;50.916;2.926;2023-01-08T07:27:25;6.50;99.90
46319;DHT22;32042;50.916;2.926;2023-01-08T07:29:51;6.50;99.90
46319;DHT22;32042;50.916;2.926;2023-01-08T07:32:16;6.50;99.90
46319;DHT22;32042;50.916;2.926;2023-01-08T07:34:42;6.50;99.90
46319;DHT22;32042;50.916;2.926;2023-01-08T07:37:08;6.50;99.90
46319;DHT22;32042;50.916;2.926;2023-01-08T07:39:33;6.50;99.90
46319;DHT22;32042;50.916;2.926;2023-01-08T07:41:59;6.50;99.90
46319;DHT22;32042;50.916;2.926;2023-01-08T07:44:25;6.60;99.90
46319;DHT22;32042;50.916;2.926;2023-01-08T07:46:50;6.50;99.90
46319;DHT22;32042;50.916;2.926;2023-01-08T07:49:16;6.50;99.90
46319;DHT22;32042;50.916;2.926;2023-01-08T07:51:41;6.50;99.90
46319;DHT22;32042;50.916;2.926;2023-01-08T07:54:07;6.60;99.90
46319;DHT22;32042;50.916;2.926;2023-01-08T07:56:33;6.60;99.90
46319;DHT22;32042;50.916;2.926;2023-01-08T07:58:58;6.60;99.90
46319;DHT22;32042;50.916;2.926;2023-01-08T08:01:24;6.60;99.90
46319;DHT22;32042;50.916;2.926;2023-01-08T08:03:51;6.60;99.90
46319;DHT22;32042;50.916;2.926;2023-01-08T08:06:16;6.60;99.90
46319;DHT22;32042;50.916;2.926;2023-01-08T08:08:42;6.60;99.90
46319;DHT22;32042;50.916;2.926;2023-01-08T08:11:08;6.60;99.90
46319;DHT22;32042;50.916;2.926;2023-01-08T08:13:33;6.70;99.90
46319;DHT22;32042;50.916;2.926;2023-01-08T08:16:03;6.70;99.90
46319;DHT22;32042;50.916;2.926;2023-01-08T08:18:29;6.70;99.90
46319;DHT22;32042;50.916;2.926;2023-01-08T08:20:55;6.70;99.90
46319;DHT22;32042;50.916;2.926;2023-01-08T08:23:22;6.70;99.90
46319;DHT22;32042;50.916;2.926;2023-01-08T08:25:48;6.80;99.90
46319;DHT22;32042;50.916;2.926;2023-01-08T08:28:13;6.80;99.90
46319;DHT22;32042;50.916;2.926;2023-01-08T08:30:39;6.80;99.90
46319;DHT22;32042;50.916;2.926;2023-01-08T08:33:05;6.90;99.90
46319;DHT22;32042;50.916;2.926;2023-01-08T08:35:32;6.90;99.90
46319;DHT22;32042;50.916;2.926;2023-01-08T08:37:59;6.90;99.90
46319;DHT22;32042;50.916;2.926;2023-01-08T08:40:25;7.00;99.90
46319;DHT22;32042;50.916;2.926;2023-01-08T08:42:58;7.00;99.90
46319;DHT22;32042;50.916;2.926;2023-01-08T08:45:25;7.00;99.90
46319;DHT22;32042;50.916;2.926;2023-01-08T08:47:50;7.10;99.90
46319;DHT22;32042;50.916;2.926;2023-01-08T08:50:17;7.10;99.90
46319;DHT22;32042;50.916;2.926;2023-01-08T08:52:43;7.10;99.90
46319;DHT22;32042;50.916;2.926;2023-01-08T08:55:10;7.20;99.90
46319;DHT22;32042;50.916;2.926;2023-01-08T08:57:40;7.20;99.90
46319;DHT22;32042;50.916;2.926;2023-01-08T09:00:06;7.20;99.90
46319;DHT22;32042;50.916;2.926;2023-01-08T09:02:32;7.20;99.90
46319;DHT22;32042;50.916;2.926;2023-01-08T09:04:58;7.30;99.90
46319;DHT22;32042;50.916;2.926;2023-01-08T09:07:23;7.30;99.90
46319;DHT22;32042;50.916;2.926;2023-01-08T09:09:49;7.40;99.90
46319;DHT22;32042;50.916;2.926;2023-01-08T09:12:15;7.40;99.90
46319;DHT22;32042;50.916;2.926;2023-01-08T09:14:40;7.40;99.90
46319;DHT22;32042;50.916;2.926;2023-01-08T09:17:06;7.50;99.90
46319;DHT22;32042;50.916;2.926;2023-01-08T09:19:32;7.50;99.90
46319;DHT22;32042;50.916;2.926;2023-01-08T09:21:57;7.60;99.90
46319;DHT22;32042;50.916;2.926;2023-01-08T09:24:23;7.60;99.90
46319;DHT22;32042;50.916;2.926;2023-01-08T09:26:52;7.60;99.90
46319;DHT22;32042;50.916;2.926;2023-01-08T09:29:17;7.70;99.90
46319;DHT22;32042;50.916;2.926;2023-01-08T09:31:43;7.70;99.90
46319;DHT22;32042;50.916;2.926;2023-01-08T09:34:09;7.80;99.90
46319;DHT22;32042;50.916;2.926;2023-01-08T09:36:35;7.80;99.90
46319;DHT22;32042;50.916;2.926;2023-01-08T09:39:01;7.90;99.90
46319;DHT22;32042;50.916;2.926;2023-01-08T09:41:30;7.90;99.90
46319;DHT22;32042;50.916;2.926;2023-01-08T09:43:57;7.90;99.90
46319;DHT22;32042;50.916;2.926;2023-01-08T09:46:26;8.00;99.90
46319;DHT22;32042;50.916;2.926;2023-01-08T09:48:54;8.10;99.90
46319;DHT22;32042;50.916;2.926;2023-01-08T09:51:21;8.10;99.90
46319;DHT22;32042;50.916;2.926;2023-01-08T09:53:54;8.10;99.90
46319;DHT22;32042;50.916;2.926;2023-01-08T09:56:21;8.10;99.90
46319;DHT22;32042;50.916;2.926;2023-01-08T09:58:52;8.20;99.90
46319;DHT22;32042;50.916;2.926;2023-01-08T10:01:24;8.20;99.90
46319;DHT22;32042;50.916;2.926;2023-01-08T10:03:52;8.20;99.90
46319;DHT22;32042;50.916;2.926;2023-01-08T10:06:22;8.30;99.90
46319;DHT22;32042;50.916;2.926;2023-01-08T10:08:49;8.30;99.90
46319;DHT22;32042;50.916;2.926;2023-01-08T10:11:15;8.30;99.90
46319;DHT22;32042;50.916;2.926;2023-01-08T10:13:49;8.40;99.90
46319;DHT22;32042;50.916;2.926;2023-01-08T10:16:32;8.40;99.90
46319;DHT22;32042;50.916;2.926;2023-01-08T10:19:02;8.40;99.90
46319;DHT22;32042;50.916;2.926;2023-01-08T10:21:35;8.40;99.90
46319;DHT22;32042;50.916;2.926;2023-01-08T10:24:01;8.50;99.90
46319;DHT22;32042;50.916;2.926;2023-01-08T10:26:32;8.50;99.90
46319;DHT22;32042;50.916;2.926;2023-01-08T10:29:12;8.50;99.90
46319;DHT22;32042;50.916;2.926;2023-01-08T10:31:58;8.60;99.90
46319;DHT22;32042;50.916;2.926;2023-01-08T10:34:45;8.70;99.90
46319;DHT22;32042;50.916;2.926;2023-01-08T10:37:36;8.70;99.90
46319;DHT22;32042;50.916;2.926;2023-01-08T10:40:46;8.70;99.90
46319;DHT22;32042;50.916;2.926;2023-01-08T10:43:33;8.80;99.90
46319;DHT22;32042;50.916;2.926;2023-01-08T10:46:20;8.90;99.90
46319;DHT22;32042;50.916;2.926;2023-01-08T10:48:50;8.90;99.90
46319;DHT22;32042;50.916;2.926;2023-01-08T10:51:22;8.90;99.90
46319;DHT22;32042;50.916;2.926;2023-01-08T10:53:50;8.90;99.90
46319;DHT22;32042;50.916;2.926;2023-01-08T10:56:22;9.00;99.90
46319;DHT22;32042;50.916;2.926;2023-01-08T10:58:49;9.00;99.90
46319;DHT22;32042;50.916;2.926;2023-01-08T11:01:26;9.10;99.90
46319;DHT22;32042;50.916;2.926;2023-01-08T11:03:58;9.10;99.90
46319;DHT22;32042;50.916;2.926;2023-01-08T11:06:33;9.10;99.90
46319;DHT22;32042;50.916;2.926;2023-01-08T11:09:12;9.10;99.90
46319;DHT22;32042;50.916;2.926;2023-01-08T11:11:41;9.20;99.90
46319;DHT22;32042;50.916;2.926;2023-01-08T11:14:29;9.20;99.90
46319;DHT22;32042;50.916;2.926;2023-01-08T11:16:57;9.30;99.90
46319;DHT22;32042;50.916;2.926;2023-01-08T11:19:28;9.40;99.90
46319;DHT22;32042;50.916;2.926;2023-01-08T11:22:00;9.40;99.90
46319;DHT22;32042;50.916;2.926;2023-01-08T11:24:31;9.40;99.90
46319;DHT22;32042;50.916;2.926;2023-01-08T11:27:27;9.50;99.90
46319;DHT22;32042;50.916;2.926;2023-01-08T11:32:35;9.60;99.90
46319;DHT22;32042;50.916;2.926;2023-01-08T11:37:40;9.60;99.90
46319;DHT22;32042;50.916;2.926;2023-01-08T11:40:16;9.60;99.90
46319;DHT22;32042;50.916;2.926;2023-01-08T11:53:46;9.70;99.90
46319;DHT22;32042;50.916;2.926;2023-01-08T11:56:19;9.60;99.90
46319;DHT22;32042;50.916;2.926;2023-01-08T11:59:13;9.70;99.90
46319;DHT22;32042;50.916;2.926;2023-01-08T12:07:40;9.70;99.90
46319;DHT22;32042;50.916;2.926;2023-01-08T12:10:25;9.80;99.90
46319;DHT22;32042;50.916;2.926;2023-01-08T12:13:24;9.80;99.90
46319;DHT22;32042;50.916;2.926;2023-01-08T12:22:09;10.00;99.90
46319;DHT22;32042;50.916;2.926;2023-01-08T12:25:15;10.00;99.90
46319;DHT22;32042;50.916;2.926;2023-01-08T12:31:17;10.00;99.90
46319;DHT22;32042;50.916;2.926;2023-01-08T12:34:11;10.10;99.90
46319;DHT22;32042;50.916;2.926;2023-01-08T12:36:41;10.10;99.90
46319;DHT22;32042;50.916;2.926;2023-01-08T12:39:23;10.00;99.90
46319;DHT22;32042;50.916;2.926;2023-01-08T12:41:53;10.00;99.90
46319;DHT22;32042;50.916;2.926;2023-01-08T12:44:27;10.10;99.90
46319;DHT22;32042;50.916;2.926;2023-01-08T12:46:56;10.10;99.90
46319;DHT22;32042;50.916;2.926;2023-01-08T12:49:32;10.10;99.90
46319;DHT22;32042;50.916;2.926;2023-01-08T12:52:15;10.00;99.90
46319;DHT22;32042;50.916;2.926;2023-01-08T12:55:05;10.00;99.90
46319;DHT22;32042;50.916;2.926;2023-01-08T12:57:41;10.00;99.90
46319;DHT22;32042;50.916;2.926;2023-01-08T13:03:09;10.10;99.90
46319;DHT22;32042;50.916;2.926;2023-01-08T13:05:36;10.10;99.90
46319;DHT22;32042;50.916;2.926;2023-01-08T13:08:32;10.10;99.90
46319;DHT22;32042;50.916;2.926;2023-01-08T13:10:59;10.10;99.90
46319;DHT22;32042;50.916;2.926;2023-01-08T13:13:32;10.20;99.90
46319;DHT22;32042;50.916;2.926;2023-01-08T13:18:34;10.30;99.90
46319;DHT22;32042;50.916;2.926;2023-01-08T13:21:02;10.20;99.90
46319;DHT22;32042;50.916;2.926;2023-01-08T13:23:33;10.20;99.90
46319;DHT22;32042;50.916;2.926;2023-01-08T13:26:01;10.20;99.90
46319;DHT22;32042;50.916;2.926;2023-01-08T13:33:47;10.20;99.90
46319;DHT22;32042;50.916;2.926;2023-01-08T13:36:16;10.10;99.90
46319;DHT22;32042;50.916;2.926;2023-01-08T13:38:43;10.10;99.90
46319;DHT22;32042;50.916;2.926;2023-01-08T13:41:34;10.10;99.90
46319;DHT22;32042;50.916;2.926;2023-01-08T13:44:06;10.10;99.90
46319;DHT22;32042;50.916;2.926;2023-01-08T13:46:40;10.00;99.90
46319;DHT22;32042;50.916;2.926;2023-01-08T13:49:08;10.00;99.90
46319;DHT22;32042;50.916;2.926;2023-01-08T13:54:16;9.90;99.90
46319;DHT22;32042;50.916;2.926;2023-01-08T13:56:45;9.90;99.90
46319;DHT22;32042;50.916;2.926;2023-01-08T13:59:33;10.00;99.90
46319;DHT22;32042;50.916;2.926;2023-01-08T14:01:59;9.90;99.90
46319;DHT22;32042;50.916;2.926;2023-01-08T14:04:26;9.90;99.90
46319;DHT22;32042;50.916;2.926;2023-01-08T14:06:52;10.00;99.90
46319;DHT22;32042;50.916;2.926;2023-01-08T14:09:24;9.90;99.90
46319;DHT22;32042;50.916;2.926;2023-01-08T14:11:53;9.90;99.90
46319;DHT22;32042;50.916;2.926;2023-01-08T14:14:23;9.90;99.90
46319;DHT22;32042;50.916;2.926;2023-01-08T14:16:50;9.90;99.90
46319;DHT22;32042;50.916;2.926;2023-01-08T14:19:24;10.00;99.90
46319;DHT22;32042;50.916;2.926;2023-01-08T14:21:55;10.10;99.90
46319;DHT22;32042;50.916;2.926;2023-01-08T14:24:23;10.10;99.90
46319;DHT22;32042;50.916;2.926;2023-01-08T14:26:58;10.10;99.90
46319;DHT22;32042;50.916;2.926;2023-01-08T14:29:26;10.00;99.90
46319;DHT22;32042;50.916;2.926;2023-01-08T14:31:54;10.00;99.90
46319;DHT22;32042;50.916;2.926;2023-01-08T14:34:21;10.00;99.90
46319;DHT22;32042;50.916;2.926;2023-01-08T14:36:52;9.90;99.90
46319;DHT22;32042;50.916;2.926;2023-01-08T14:39:22;9.80;99.90
46319;DHT22;32042;50.916;2.926;2023-01-08T14:41:49;9.80;99.90
46319;DHT22;32042;50.916;2.926;2023-01-08T14:44:34;9.80;99.90
46319;DHT22;32042;50.916;2.926;2023-01-08T14:47:00;9.70;99.90
46319;DHT22;32042;50.916;2.926;2023-01-08T14:49:29;9.70;99.90
46319;DHT22;32042;50.916;2.926;2023-01-08T14:51:59;9.70;99.90
46319;DHT22;32042;50.916;2.926;2023-01-08T14:54:35;9.70;99.90
46319;DHT22;32042;50.916;2.926;2023-01-08T14:57:02;9.70;99.90
46319;DHT22;32042;50.916;2.926;2023-01-08T14:59:30;9.70;99.90
46319;DHT22;32042;50.916;2.926;2023-01-08T15:02:00;9.70;99.90
46319;DHT22;32042;50.916;2.926;2023-01-08T15:04:27;9.70;99.90
46319;DHT22;32042;50.916;2.926;2023-01-08T15:07:21;9.70;99.90
46319;DHT22;32042;50.916;2.926;2023-01-08T15:09:57;9.60;99.90
46319;DHT22;32042;50.916;2.926;2023-01-08T15:12:26;9.60;99.90
46319;DHT22;32042;50.916;2.926;2023-01-08T15:14:52;9.60;99.90
46319;DHT22;32042;50.916;2.926;2023-01-08T15:17:22;9.60;99.90
46319;DHT22;32042;50.916;2.926;2023-01-08T15:19:54;9.50;99.90
46319;DHT22;32042;50.916;2.926;2023-01-08T15:22:28;9.50;99.90
46319;DHT22;32042;50.916;2.926;2023-01-08T15:25:02;9.50;99.90
46319;DHT22;32042;50.916;2.926;2023-01-08T15:27:28;9.50;99.90
46319;DHT22;32042;50.916;2.926;2023-01-08T15:30:03;9.50;99.90
46319;DHT22;32042;50.916;2.926;2023-01-08T15:32:33;9.50;99.90
46319;DHT22;32042;50.916;2.926;2023-01-08T15:35:22;9.50;99.90
46319;DHT22;32042;50.916;2.926;2023-01-08T15:37:50;9.50;99.90
46319;DHT22;32042;50.916;2.926;2023-01-08T15:40:15;9.50;99.90
46319;DHT22;32042;50.916;2.926;2023-01-08T15:42:42;9.50;99.90
46319;DHT22;32042;50.916;2.926;2023-01-08T15:45:28;9.50;99.90
46319;DHT22;32042;50.916;2.926;2023-01-08T15:47:56;9.50;99.90
46319;DHT22;32042;50.916;2.926;2023-01-08T15:50:24;9.50;99.90
46319;DHT22;32042;50.916;2.926;2023-01-08T15:52:50;9.40;99.90
46319;DHT22;32042;50.916;2.926;2023-01-08T15:55:20;9.50;99.90
46319;DHT22;32042;50.916;2.926;2023-01-08T15:57:46;9.50;99.90
46319;DHT22;32042;50.916;2.926;2023-01-08T16:00:16;9.40;99.90
46319;DHT22;32042;50.916;2.926;2023-01-08T16:02:45;9.50;99.90
46319;DHT22;32042;50.916;2.926;2023-01-08T16:05:11;9.50;99.90
46319;DHT22;32042;50.916;2.926;2023-01-08T16:07:37;9.50;99.90
46319;DHT22;32042;50.916;2.926;2023-01-08T16:10:04;9.50;99.90
46319;DHT22;32042;50.916;2.926;2023-01-08T16:12:30;9.50;99.90
46319;DHT22;32042;50.916;2.926;2023-01-08T16:14:55;9.50;99.90
46319;DHT22;32042;50.916;2.926;2023-01-08T16:17:24;9.50;99.90
46319;DHT22;32042;50.916;2.926;2023-01-08T16:19:50;9.50;99.90
46319;DHT22;32042;50.916;2.926;2023-01-08T16:22:15;9.50;99.90
46319;DHT22;32042;50.916;2.926;2023-01-08T16:24:41;9.50;99.90
46319;DHT22;32042;50.916;2.926;2023-01-08T16:27:06;9.40;99.90
46319;DHT22;32042;50.916;2.926;2023-01-08T16:29:34;9.40;99.90
46319;DHT22;32042;50.916;2.926;2023-01-08T16:31:59;9.40;99.90
46319;DHT22;32042;50.916;2.926;2023-01-08T16:34:25;9.40;99.90
46319;DHT22;32042;50.916;2.926;2023-01-08T16:36:51;9.30;99.90
46319;DHT22;32042;50.916;2.926;2023-01-08T16:39:17;9.30;99.90
46319;DHT22;32042;50.916;2.926;2023-01-08T16:41:43;9.30;99.90
46319;DHT22;32042;50.916;2.926;2023-01-08T16:44:22;9.30;99.90
46319;DHT22;32042;50.916;2.926;2023-01-08T16:46:49;9.30;99.90
46319;DHT22;32042;50.916;2.926;2023-01-08T16:49:15;9.20;99.90
46319;DHT22;32042;50.916;2.926;2023-01-08T16:51:41;9.20;99.90
46319;DHT22;32042;50.916;2.926;2023-01-08T16:54:13;9.10;99.90
46319;DHT22;32042;50.916;2.926;2023-01-08T16:56:39;9.10;99.90
46319;DHT22;32042;50.916;2.926;2023-01-08T16:59:05;9.00;99.90
46319;DHT22;32042;50.916;2.926;2023-01-08T17:01:30;9.00;99.90
46319;DHT22;32042;50.916;2.926;2023-01-08T17:03:57;9.00;99.90